Florence, Kansas
Current Conditions -  °F | °C
As of 1:35 AM on Monday 22 Dec 2014 (Local Time) from KEWK Reporting Station
Overcast Overcast  
Wind Chill: 35°   Ceiling: 300
Heat Index: 43°   Visibility: 3mi
Dew Point: 37°   Wind: 15mph
Humidity: 81%   Direction: 170°S
Pressure: 29.61"   Gusts: NA
Location:  38.24°N, 96.93°W
Report Text: KEWK 220735Z AUTO 17013KT 3SM OVC003 06/03 A2961 RMK AO1
Loading
Personal Weather Stations






























Interactive Weather Map New forecast layout! Learn more

10-Day Weather Forecast

Advertisements
Track Severe Weather on mobile